sensor_id;sensor_type;location;lat;lon;timestamp;P1;durP1;ratioP1;P2;durP2;ratioP2
36573;SDS011;22578;42.668;23.232;2024-01-06T00:02:33;1.60;;;1.50;;
36573;SDS011;22578;42.668;23.232;2024-01-06T00:05:55;1.75;;;1.50;;
36573;SDS011;22578;42.668;23.232;2024-01-06T00:09:15;1.40;;;1.30;;
36573;SDS011;22578;42.668;23.232;2024-01-06T00:12:36;2.70;;;1.85;;
36573;SDS011;22578;42.668;23.232;2024-01-06T00:15:56;1.17;;;1.17;;
36573;SDS011;22578;42.668;23.232;2024-01-06T00:19:18;1.52;;;1.42;;
36573;SDS011;22578;42.668;23.232;2024-01-06T00:22:39;1.60;;;1.50;;
36573;SDS011;22578;42.668;23.232;2024-01-06T00:26:04;1.40;;;1.30;;
36573;SDS011;22578;42.668;23.232;2024-01-06T00:29:26;4.55;;;1.48;;
36573;SDS011;22578;42.668;23.232;2024-01-06T00:32:47;1.58;;;1.38;;
36573;SDS011;22578;42.668;23.232;2024-01-06T00:36:07;1.20;;;1.20;;
36573;SDS011;22578;42.668;23.232;2024-01-06T00:39:28;1.80;;;1.65;;
36573;SDS011;22578;42.668;23.232;2024-01-06T00:42:49;1.55;;;1.38;;
36573;SDS011;22578;42.668;23.232;2024-01-06T00:46:09;1.25;;;1.25;;
36573;SDS011;22578;42.668;23.232;2024-01-06T00:49:30;1.48;;;1.38;;
36573;SDS011;22578;42.668;23.232;2024-01-06T00:52:50;1.65;;;1.55;;
36573;SDS011;22578;42.668;23.232;2024-01-06T00:56:12;1.70;;;1.60;;
36573;SDS011;22578;42.668;23.232;2024-01-06T00:59:33;1.42;;;1.35;;
36573;SDS011;22578;42.668;23.232;2024-01-06T01:02:53;1.63;;;1.52;;
36573;SDS011;22578;42.668;23.232;2024-01-06T01:06:14;1.48;;;1.42;;
36573;SDS011;22578;42.668;23.232;2024-01-06T01:09:34;3.35;;;2.15;;
36573;SDS011;22578;42.668;23.232;2024-01-06T01:12:55;1.95;;;1.85;;
36573;SDS011;22578;42.668;23.232;2024-01-06T01:16:15;1.65;;;1.55;;
36573;SDS011;22578;42.668;23.232;2024-01-06T01:19:36;2.78;;;2.00;;
36573;SDS011;22578;42.668;23.232;2024-01-06T01:22:56;1.80;;;1.70;;
36573;SDS011;22578;42.668;23.232;2024-01-06T01:26:17;1.50;;;1.40;;
36573;SDS011;22578;42.668;23.232;2024-01-06T01:29:37;1.40;;;1.30;;
36573;SDS011;22578;42.668;23.232;2024-01-06T01:32:58;1.35;;;1.30;;
36573;SDS011;22578;42.668;23.232;2024-01-06T01:36:19;1.50;;;1.42;;
36573;SDS011;22578;42.668;23.232;2024-01-06T01:39:39;1.58;;;1.38;;
36573;SDS011;22578;42.668;23.232;2024-01-06T01:43:00;1.27;;;1.27;;
36573;SDS011;22578;42.668;23.232;2024-01-06T01:46:21;1.23;;;1.20;;
36573;SDS011;22578;42.668;23.232;2024-01-06T01:49:41;1.48;;;1.40;;
36573;SDS011;22578;42.668;23.232;2024-01-06T01:53:02;1.67;;;1.58;;
36573;SDS011;22578;42.668;23.232;2024-01-06T01:56:23;2.03;;;1.90;;
36573;SDS011;22578;42.668;23.232;2024-01-06T01:59:44;2.10;;;2.00;;
36573;SDS011;22578;42.668;23.232;2024-01-06T02:03:05;1.65;;;1.55;;
36573;SDS011;22578;42.668;23.232;2024-01-06T02:06:27;2.15;;;1.95;;
36573;SDS011;22578;42.668;23.232;2024-01-06T02:09:47;2.42;;;1.55;;
36573;SDS011;22578;42.668;23.232;2024-01-06T02:13:09;3.75;;;2.33;;
36573;SDS011;22578;42.668;23.232;2024-01-06T02:16:33;4.28;;;1.75;;
36573;SDS011;22578;42.668;23.232;2024-01-06T02:19:54;1.45;;;1.38;;
36573;SDS011;22578;42.668;23.232;2024-01-06T02:23:16;5.05;;;1.63;;
36573;SDS011;22578;42.668;23.232;2024-01-06T02:26:37;1.88;;;1.77;;
36573;SDS011;22578;42.668;23.232;2024-01-06T02:29:57;1.50;;;1.40;;
36573;SDS011;22578;42.668;23.232;2024-01-06T02:33:18;1.55;;;1.45;;
36573;SDS011;22578;42.668;23.232;2024-01-06T02:36:39;1.25;;;1.25;;
36573;SDS011;22578;42.668;23.232;2024-01-06T02:40:00;1.10;;;1.10;;
36573;SDS011;22578;42.668;23.232;2024-01-06T02:43:20;1.40;;;1.30;;
36573;SDS011;22578;42.668;23.232;2024-01-06T02:46:42;6.82;;;2.15;;
36573;SDS011;22578;42.668;23.232;2024-01-06T02:50:03;2.20;;;1.77;;
36573;SDS011;22578;42.668;23.232;2024-01-06T02:53:24;2.35;;;1.90;;
36573;SDS011;22578;42.668;23.232;2024-01-06T02:56:45;1.50;;;1.40;;
36573;SDS011;22578;42.668;23.232;2024-01-06T03:00:05;1.60;;;1.50;;
36573;SDS011;22578;42.668;23.232;2024-01-06T03:03:27;1.40;;;1.38;;
36573;SDS011;22578;42.668;23.232;2024-01-06T03:06:48;1.98;;;1.85;;
36573;SDS011;22578;42.668;23.232;2024-01-06T03:10:12;4.00;;;2.05;;
36573;SDS011;22578;42.668;23.232;2024-01-06T03:13:33;1.70;;;1.60;;
36573;SDS011;22578;42.668;23.232;2024-01-06T03:16:53;1.70;;;1.60;;
36573;SDS011;22578;42.668;23.232;2024-01-06T03:20:14;3.67;;;1.50;;
36573;SDS011;22578;42.668;23.232;2024-01-06T03:23:35;1.65;;;1.55;;
36573;SDS011;22578;42.668;23.232;2024-01-06T03:26:55;2.70;;;1.83;;
36573;SDS011;22578;42.668;23.232;2024-01-06T03:30:16;6.00;;;3.15;;
36573;SDS011;22578;42.668;23.232;2024-01-06T03:33:37;1.52;;;1.42;;
36573;SDS011;22578;42.668;23.232;2024-01-06T03:36:58;1.63;;;1.40;;
36573;SDS011;22578;42.668;23.232;2024-01-06T03:40:18;1.30;;;1.30;;
36573;SDS011;22578;42.668;23.232;2024-01-06T03:43:39;1.27;;;1.27;;
36573;SDS011;22578;42.668;23.232;2024-01-06T03:47:01;1.67;;;1.58;;
36573;SDS011;22578;42.668;23.232;2024-01-06T03:50:21;2.28;;;2.08;;
36573;SDS011;22578;42.668;23.232;2024-01-06T03:53:42;1.98;;;1.85;;
36573;SDS011;22578;42.668;23.232;2024-01-06T03:57:03;6.57;;;2.00;;
36573;SDS011;22578;42.668;23.232;2024-01-06T04:00:24;1.60;;;1.50;;
36573;SDS011;22578;42.668;23.232;2024-01-06T04:03:45;3.08;;;2.30;;
36573;SDS011;22578;42.668;23.232;2024-01-06T04:07:06;2.10;;;1.90;;
36573;SDS011;22578;42.668;23.232;2024-01-06T04:10:27;1.85;;;1.75;;
36573;SDS011;22578;42.668;23.232;2024-01-06T04:13:47;1.88;;;1.75;;
36573;SDS011;22578;42.668;23.232;2024-01-06T04:17:08;2.85;;;2.65;;
36573;SDS011;22578;42.668;23.232;2024-01-06T04:20:28;1.60;;;1.50;;
36573;SDS011;22578;42.668;23.232;2024-01-06T04:23:49;2.30;;;1.88;;
36573;SDS011;22578;42.668;23.232;2024-01-06T04:27:10;1.90;;;1.80;;
36573;SDS011;22578;42.668;23.232;2024-01-06T04:30:30;2.85;;;2.53;;
36573;SDS011;22578;42.668;23.232;2024-01-06T04:33:51;1.60;;;1.50;;
36573;SDS011;22578;42.668;23.232;2024-01-06T04:37:12;2.63;;;2.22;;
36573;SDS011;22578;42.668;23.232;2024-01-06T04:40:32;2.00;;;1.77;;
36573;SDS011;22578;42.668;23.232;2024-01-06T04:43:54;1.63;;;1.52;;
36573;SDS011;22578;42.668;23.232;2024-01-06T04:47:14;3.33;;;1.70;;
36573;SDS011;22578;42.668;23.232;2024-01-06T04:50:35;1.35;;;1.35;;
36573;SDS011;22578;42.668;23.232;2024-01-06T04:53:55;1.98;;;1.88;;
36573;SDS011;22578;42.668;23.232;2024-01-06T04:57:16;1.70;;;1.60;;
36573;SDS011;22578;42.668;23.232;2024-01-06T05:00:36;2.15;;;1.95;;
36573;SDS011;22578;42.668;23.232;2024-01-06T05:03:57;2.53;;;2.33;;
36573;SDS011;22578;42.668;23.232;2024-01-06T05:07:19;3.60;;;2.97;;
36573;SDS011;22578;42.668;23.232;2024-01-06T05:10:39;1.80;;;1.70;;
36573;SDS011;22578;42.668;23.232;2024-01-06T05:14:00;1.73;;;1.63;;
36573;SDS011;22578;42.668;23.232;2024-01-06T05:17:21;2.35;;;2.17;;
36573;SDS011;22578;42.668;23.232;2024-01-06T05:20:42;1.40;;;1.35;;
36573;SDS011;22578;42.668;23.232;2024-01-06T05:24:03;2.85;;;2.30;;
36573;SDS011;22578;42.668;23.232;2024-01-06T05:27:24;2.03;;;1.92;;
36573;SDS011;22578;42.668;23.232;2024-01-06T05:30:45;3.22;;;2.47;;
36573;SDS011;22578;42.668;23.232;2024-01-06T05:34:06;2.20;;;1.95;;
36573;SDS011;22578;42.668;23.232;2024-01-06T05:37:26;1.75;;;1.65;;
36573;SDS011;22578;42.668;23.232;2024-01-06T05:40:47;3.90;;;2.33;;
36573;SDS011;22578;42.668;23.232;2024-01-06T05:44:26;1.63;;;1.52;;
36573;SDS011;22578;42.668;23.232;2024-01-06T05:47:46;2.03;;;1.85;;
36573;SDS011;22578;42.668;23.232;2024-01-06T05:51:07;2.40;;;2.17;;
36573;SDS011;22578;42.668;23.232;2024-01-06T05:54:28;1.60;;;1.50;;
36573;SDS011;22578;42.668;23.232;2024-01-06T05:57:48;1.88;;;1.75;;
36573;SDS011;22578;42.668;23.232;2024-01-06T06:01:09;3.25;;;2.30;;
36573;SDS011;22578;42.668;23.232;2024-01-06T06:04:29;2.72;;;2.08;;
36573;SDS011;22578;42.668;23.232;2024-01-06T06:07:50;3.90;;;2.67;;
36573;SDS011;22578;42.668;23.232;2024-01-06T06:11:10;2.05;;;1.85;;
36573;SDS011;22578;42.668;23.232;2024-01-06T06:14:31;1.92;;;1.75;;
36573;SDS011;22578;42.668;23.232;2024-01-06T06:17:52;2.03;;;1.83;;
36573;SDS011;22578;42.668;23.232;2024-01-06T06:21:15;3.40;;;2.22;;
36573;SDS011;22578;42.668;23.232;2024-01-06T06:24:36;4.43;;;2.90;;
36573;SDS011;22578;42.668;23.232;2024-01-06T06:27:56;4.75;;;2.30;;
36573;SDS011;22578;42.668;23.232;2024-01-06T06:31:17;1.77;;;1.67;;
36573;SDS011;22578;42.668;23.232;2024-01-06T06:34:38;1.30;;;1.30;;
36573;SDS011;22578;42.668;23.232;2024-01-06T06:37:58;7.30;;;2.08;;
36573;SDS011;22578;42.668;23.232;2024-01-06T06:41:19;1.90;;;1.80;;
36573;SDS011;22578;42.668;23.232;2024-01-06T06:44:40;2.35;;;2.13;;
36573;SDS011;22578;42.668;23.232;2024-01-06T06:48:00;1.65;;;1.55;;
36573;SDS011;22578;42.668;23.232;2024-01-06T06:51:21;1.98;;;1.85;;
36573;SDS011;22578;42.668;23.232;2024-01-06T06:54:45;2.38;;;2.17;;
36573;SDS011;22578;42.668;23.232;2024-01-06T06:58:05;2.17;;;1.88;;
36573;SDS011;22578;42.668;23.232;2024-01-06T07:01:26;5.85;;;2.30;;
36573;SDS011;22578;42.668;23.232;2024-01-06T07:04:47;2.03;;;1.88;;
36573;SDS011;22578;42.668;23.232;2024-01-06T07:08:07;1.88;;;1.77;;
36573;SDS011;22578;42.668;23.232;2024-01-06T07:11:28;1.83;;;1.73;;
36573;SDS011;22578;42.668;23.232;2024-01-06T07:14:48;1.60;;;1.50;;
36573;SDS011;22578;42.668;23.232;2024-01-06T07:18:09;2.65;;;2.30;;
36573;SDS011;22578;42.668;23.232;2024-01-06T07:21:29;2.78;;;2.55;;
36573;SDS011;22578;42.668;23.232;2024-01-06T07:24:50;2.28;;;2.08;;
36573;SDS011;22578;42.668;23.232;2024-01-06T07:28:11;2.00;;;1.90;;
36573;SDS011;22578;42.668;23.232;2024-01-06T07:31:31;4.55;;;2.63;;
36573;SDS011;22578;42.668;23.232;2024-01-06T07:34:52;2.25;;;1.75;;
36573;SDS011;22578;42.668;23.232;2024-01-06T07:38:13;3.55;;;2.25;;
36573;SDS011;22578;42.668;23.232;2024-01-06T07:41:33;2.20;;;2.03;;
36573;SDS011;22578;42.668;23.232;2024-01-06T07:44:54;5.63;;;3.28;;
36573;SDS011;22578;42.668;23.232;2024-01-06T07:48:14;2.13;;;2.00;;
36573;SDS011;22578;42.668;23.232;2024-01-06T07:51:35;4.93;;;3.95;;
36573;SDS011;22578;42.668;23.232;2024-01-06T07:54:55;5.80;;;3.67;;
36573;SDS011;22578;42.668;23.232;2024-01-06T07:58:16;4.15;;;3.58;;
36573;SDS011;22578;42.668;23.232;2024-01-06T08:01:37;7.85;;;4.15;;
36573;SDS011;22578;42.668;23.232;2024-01-06T08:04:57;3.45;;;1.95;;
36573;SDS011;22578;42.668;23.232;2024-01-06T08:08:18;3.78;;;2.08;;
36573;SDS011;22578;42.668;23.232;2024-01-06T08:11:39;2.95;;;2.40;;
36573;SDS011;22578;42.668;23.232;2024-01-06T08:14:59;6.40;;;4.38;;
36573;SDS011;22578;42.668;23.232;2024-01-06T08:18:20;3.42;;;2.28;;
36573;SDS011;22578;42.668;23.232;2024-01-06T08:21:41;2.10;;;2.00;;
36573;SDS011;22578;42.668;23.232;2024-01-06T08:25:02;4.00;;;2.08;;
36573;SDS011;22578;42.668;23.232;2024-01-06T08:28:23;2.25;;;1.77;;
36573;SDS011;22578;42.668;23.232;2024-01-06T08:31:44;2.42;;;1.77;;
36573;SDS011;22578;42.668;23.232;2024-01-06T08:35:04;1.60;;;1.50;;
36573;SDS011;22578;42.668;23.232;2024-01-06T08:38:25;3.70;;;2.88;;
36573;SDS011;22578;42.668;23.232;2024-01-06T08:41:46;2.40;;;2.20;;
36573;SDS011;22578;42.668;23.232;2024-01-06T08:45:07;3.13;;;2.15;;
36573;SDS011;22578;42.668;23.232;2024-01-06T08:48:28;3.03;;;2.15;;
36573;SDS011;22578;42.668;23.232;2024-01-06T08:51:49;4.00;;;2.50;;
36573;SDS011;22578;42.668;23.232;2024-01-06T08:55:10;2.22;;;2.03;;
36573;SDS011;22578;42.668;23.232;2024-01-06T08:58:31;4.57;;;2.60;;
36573;SDS011;22578;42.668;23.232;2024-01-06T09:01:51;3.20;;;2.90;;
36573;SDS011;22578;42.668;23.232;2024-01-06T09:05:13;6.15;;;3.60;;
36573;SDS011;22578;42.668;23.232;2024-01-06T09:08:33;3.83;;;2.80;;
36573;SDS011;22578;42.668;23.232;2024-01-06T09:11:54;1.92;;;1.83;;
36573;SDS011;22578;42.668;23.232;2024-01-06T09:15:14;6.25;;;3.83;;
36573;SDS011;22578;42.668;23.232;2024-01-06T09:18:35;3.22;;;2.20;;
36573;SDS011;22578;42.668;23.232;2024-01-06T09:21:56;6.63;;;2.90;;
36573;SDS011;22578;42.668;23.232;2024-01-06T09:25:17;3.17;;;2.85;;
36573;SDS011;22578;42.668;23.232;2024-01-06T09:28:37;2.70;;;2.42;;
36573;SDS011;22578;42.668;23.232;2024-01-06T09:31:58;2.33;;;2.13;;
36573;SDS011;22578;42.668;23.232;2024-01-06T09:35:20;3.53;;;2.25;;
36573;SDS011;22578;42.668;23.232;2024-01-06T09:38:40;8.02;;;3.53;;
36573;SDS011;22578;42.668;23.232;2024-01-06T09:42:01;2.45;;;2.25;;
36573;SDS011;22578;42.668;23.232;2024-01-06T09:45:21;10.35;;;2.63;;
36573;SDS011;22578;42.668;23.232;2024-01-06T09:48:42;2.42;;;2.10;;
36573;SDS011;22578;42.668;23.232;2024-01-06T09:52:03;3.67;;;2.45;;
36573;SDS011;22578;42.668;23.232;2024-01-06T09:55:25;4.28;;;2.95;;
36573;SDS011;22578;42.668;23.232;2024-01-06T09:58:49;4.82;;;2.95;;
36573;SDS011;22578;42.668;23.232;2024-01-06T10:02:12;3.35;;;2.90;;
36573;SDS011;22578;42.668;23.232;2024-01-06T10:05:34;2.40;;;2.20;;
36573;SDS011;22578;42.668;23.232;2024-01-06T10:08:56;2.97;;;2.45;;
36573;SDS011;22578;42.668;23.232;2024-01-06T10:12:16;5.72;;;3.20;;
36573;SDS011;22578;42.668;23.232;2024-01-06T10:15:37;3.17;;;2.67;;
36573;SDS011;22578;42.668;23.232;2024-01-06T10:18:58;5.63;;;3.25;;
36573;SDS011;22578;42.668;23.232;2024-01-06T10:22:18;3.28;;;2.85;;
36573;SDS011;22578;42.668;23.232;2024-01-06T10:25:39;5.63;;;3.75;;
36573;SDS011;22578;42.668;23.232;2024-01-06T10:29:02;6.00;;;3.22;;
36573;SDS011;22578;42.668;23.232;2024-01-06T10:32:23;4.18;;;2.67;;
36573;SDS011;22578;42.668;23.232;2024-01-06T10:35:49;6.13;;;2.65;;
36573;SDS011;22578;42.668;23.232;2024-01-06T10:39:09;4.60;;;2.97;;
36573;SDS011;22578;42.668;23.232;2024-01-06T10:42:30;3.88;;;3.30;;
36573;SDS011;22578;42.668;23.232;2024-01-06T10:45:51;3.03;;;2.47;;
36573;SDS011;22578;42.668;23.232;2024-01-06T10:49:12;5.93;;;3.00;;
36573;SDS011;22578;42.668;23.232;2024-01-06T10:52:32;5.43;;;3.40;;
36573;SDS011;22578;42.668;23.232;2024-01-06T10:55:56;18.10;;;5.70;;
36573;SDS011;22578;42.668;23.232;2024-01-06T10:59:18;8.18;;;4.03;;
36573;SDS011;22578;42.668;23.232;2024-01-06T11:02:42;5.85;;;3.85;;
36573;SDS011;22578;42.668;23.232;2024-01-06T11:06:04;8.00;;;4.90;;
36573;SDS011;22578;42.668;23.232;2024-01-06T11:09:27;15.45;;;5.63;;
36573;SDS011;22578;42.668;23.232;2024-01-06T11:13:08;5.78;;;4.20;;
36573;SDS011;22578;42.668;23.232;2024-01-06T11:16:35;5.47;;;3.83;;
36573;SDS011;22578;42.668;23.232;2024-01-06T11:20:06;7.60;;;5.53;;
36573;SDS011;22578;42.668;23.232;2024-01-06T11:23:26;6.85;;;4.75;;
36573;SDS011;22578;42.668;23.232;2024-01-06T11:26:51;8.80;;;4.38;;
36573;SDS011;22578;42.668;23.232;2024-01-06T11:30:24;6.32;;;4.20;;
36573;SDS011;22578;42.668;23.232;2024-01-06T11:33:46;12.90;;;9.25;;
36573;SDS011;22578;42.668;23.232;2024-01-06T11:37:09;7.57;;;4.82;;
36573;SDS011;22578;42.668;23.232;2024-01-06T11:40:31;5.07;;;3.60;;
36573;SDS011;22578;42.668;23.232;2024-01-06T11:43:53;4.72;;;3.50;;
36573;SDS011;22578;42.668;23.232;2024-01-06T11:47:14;5.22;;;3.50;;
36573;SDS011;22578;42.668;23.232;2024-01-06T11:50:38;5.07;;;3.15;;
36573;SDS011;22578;42.668;23.232;2024-01-06T11:54:00;8.52;;;4.53;;
36573;SDS011;22578;42.668;23.232;2024-01-06T11:57:20;5.05;;;3.90;;
36573;SDS011;22578;42.668;23.232;2024-01-06T12:00:41;4.35;;;2.83;;
36573;SDS011;22578;42.668;23.232;2024-01-06T12:04:02;5.75;;;3.78;;
36573;SDS011;22578;42.668;23.232;2024-01-06T12:07:25;3.53;;;2.67;;
36573;SDS011;22578;42.668;23.232;2024-01-06T12:10:45;8.27;;;4.15;;
36573;SDS011;22578;42.668;23.232;2024-01-06T12:14:06;4.03;;;3.05;;
36573;SDS011;22578;42.668;23.232;2024-01-06T12:17:30;4.47;;;2.63;;
36573;SDS011;22578;42.668;23.232;2024-01-06T12:20:52;11.57;;;3.80;;
36573;SDS011;22578;42.668;23.232;2024-01-06T12:24:15;3.15;;;2.28;;
36573;SDS011;22578;42.668;23.232;2024-01-06T12:31:03;5.60;;;2.85;;
36573;SDS011;22578;42.668;23.232;2024-01-06T12:34:24;2.63;;;2.30;;
36573;SDS011;22578;42.668;23.232;2024-01-06T12:37:45;6.10;;;2.20;;
36573;SDS011;22578;42.668;23.232;2024-01-06T12:41:05;9.48;;;2.67;;
36573;SDS011;22578;42.668;23.232;2024-01-06T12:44:26;3.42;;;2.40;;
36573;SDS011;22578;42.668;23.232;2024-01-06T12:47:47;2.25;;;2.03;;
36573;SDS011;22578;42.668;23.232;2024-01-06T12:51:08;3.70;;;2.58;;
36573;SDS011;22578;42.668;23.232;2024-01-06T12:54:28;6.53;;;2.97;;
36573;SDS011;22578;42.668;23.232;2024-01-06T12:57:49;3.47;;;2.78;;
36573;SDS011;22578;42.668;23.232;2024-01-06T13:01:09;3.92;;;2.50;;
36573;SDS011;22578;42.668;23.232;2024-01-06T13:04:30;3.95;;;2.50;;
36573;SDS011;22578;42.668;23.232;2024-01-06T13:07:51;6.88;;;2.38;;
36573;SDS011;22578;42.668;23.232;2024-01-06T13:11:12;4.50;;;2.90;;
36573;SDS011;22578;42.668;23.232;2024-01-06T13:14:32;3.38;;;2.33;;
36573;SDS011;22578;42.668;23.232;2024-01-06T13:17:53;2.40;;;2.17;;
36573;SDS011;22578;42.668;23.232;2024-01-06T13:21:14;2.67;;;1.90;;
36573;SDS011;22578;42.668;23.232;2024-01-06T13:24:37;3.13;;;2.78;;
36573;SDS011;22578;42.668;23.232;2024-01-06T13:31:21;3.10;;;2.10;;
36573;SDS011;22578;42.668;23.232;2024-01-06T13:34:42;4.75;;;2.85;;
36573;SDS011;22578;42.668;23.232;2024-01-06T13:38:03;8.48;;;3.55;;
36573;SDS011;22578;42.668;23.232;2024-01-06T13:41:26;4.03;;;2.05;;
36573;SDS011;22578;42.668;23.232;2024-01-06T13:44:47;3.53;;;2.10;;
36573;SDS011;22578;42.668;23.232;2024-01-06T13:48:10;2.30;;;2.10;;
36573;SDS011;22578;42.668;23.232;2024-01-06T13:51:31;9.45;;;7.13;;
36573;SDS011;22578;42.668;23.232;2024-01-06T13:54:51;4.35;;;3.72;;
36573;SDS011;22578;42.668;23.232;2024-01-06T13:58:12;5.13;;;2.55;;
36573;SDS011;22578;42.668;23.232;2024-01-06T14:01:32;3.22;;;2.38;;
36573;SDS011;22578;42.668;23.232;2024-01-06T14:04:53;4.05;;;3.13;;
36573;SDS011;22578;42.668;23.232;2024-01-06T14:08:14;2.75;;;2.10;;
36573;SDS011;22578;42.668;23.232;2024-01-06T14:11:34;2.75;;;2.42;;
36573;SDS011;22578;42.668;23.232;2024-01-06T14:14:56;4.05;;;1.95;;
36573;SDS011;22578;42.668;23.232;2024-01-06T14:18:17;5.28;;;3.08;;
36573;SDS011;22578;42.668;23.232;2024-01-06T14:21:38;3.42;;;2.08;;
36573;SDS011;22578;42.668;23.232;2024-01-06T14:24:59;7.97;;;2.67;;
36573;SDS011;22578;42.668;23.232;2024-01-06T14:28:20;3.55;;;2.17;;
36573;SDS011;22578;42.668;23.232;2024-01-06T14:31:40;6.15;;;4.05;;
36573;SDS011;22578;42.668;23.232;2024-01-06T14:35:01;2.08;;;1.90;;
36573;SDS011;22578;42.668;23.232;2024-01-06T14:38:21;3.28;;;2.40;;
36573;SDS011;22578;42.668;23.232;2024-01-06T14:41:42;5.45;;;2.47;;
36573;SDS011;22578;42.668;23.232;2024-01-06T14:45:03;3.58;;;2.58;;
36573;SDS011;22578;42.668;23.232;2024-01-06T14:48:24;4.25;;;2.90;;
36573;SDS011;22578;42.668;23.232;2024-01-06T14:51:44;3.78;;;2.70;;
36573;SDS011;22578;42.668;23.232;2024-01-06T14:55:05;3.10;;;2.38;;
36573;SDS011;22578;42.668;23.232;2024-01-06T14:58:26;2.55;;;2.22;;
36573;SDS011;22578;42.668;23.232;2024-01-06T15:01:47;3.42;;;2.40;;
36573;SDS011;22578;42.668;23.232;2024-01-06T15:05:08;6.43;;;2.20;;
36573;SDS011;22578;42.668;23.232;2024-01-06T15:08:29;4.10;;;2.90;;
36573;SDS011;22578;42.668;23.232;2024-01-06T15:11:50;3.15;;;2.50;;
36573;SDS011;22578;42.668;23.232;2024-01-06T15:15:10;2.35;;;2.15;;
36573;SDS011;22578;42.668;23.232;2024-01-06T15:18:31;2.72;;;2.40;;
36573;SDS011;22578;42.668;23.232;2024-01-06T15:21:54;7.15;;;2.70;;
36573;SDS011;22578;42.668;23.232;2024-01-06T15:25:14;2.17;;;1.98;;
36573;SDS011;22578;42.668;23.232;2024-01-06T15:28:35;4.35;;;2.30;;
36573;SDS011;22578;42.668;23.232;2024-01-06T15:31:56;3.22;;;2.40;;
36573;SDS011;22578;42.668;23.232;2024-01-06T15:35:20;3.65;;;2.58;;
36573;SDS011;22578;42.668;23.232;2024-01-06T15:38:40;2.85;;;2.63;;
36573;SDS011;22578;42.668;23.232;2024-01-06T15:42:01;1.98;;;1.88;;
36573;SDS011;22578;42.668;23.232;2024-01-06T15:45:21;13.60;;;3.05;;
36573;SDS011;22578;42.668;23.232;2024-01-06T15:48:42;5.93;;;5.32;;
36573;SDS011;22578;42.668;23.232;2024-01-06T15:52:03;4.57;;;3.05;;
36573;SDS011;22578;42.668;23.232;2024-01-06T15:55:27;7.38;;;3.75;;
36573;SDS011;22578;42.668;23.232;2024-01-06T15:58:47;2.58;;;2.35;;
36573;SDS011;22578;42.668;23.232;2024-01-06T16:02:08;41.85;;;12.48;;
36573;SDS011;22578;42.668;23.232;2024-01-06T16:05:29;31.38;;;15.50;;
36573;SDS011;22578;42.668;23.232;2024-01-06T16:08:49;47.00;;;25.08;;
36573;SDS011;22578;42.668;23.232;2024-01-06T16:12:11;18.73;;;6.70;;
36573;SDS011;22578;42.668;23.232;2024-01-06T16:15:31;2.35;;;2.15;;
36573;SDS011;22578;42.668;23.232;2024-01-06T16:18:52;3.90;;;2.38;;
36573;SDS011;22578;42.668;23.232;2024-01-06T16:22:13;5.32;;;1.85;;
36573;SDS011;22578;42.668;23.232;2024-01-06T16:25:37;4.28;;;3.20;;
36573;SDS011;22578;42.668;23.232;2024-01-06T16:28:58;4.45;;;2.78;;
36573;SDS011;22578;42.668;23.232;2024-01-06T16:32:18;4.50;;;3.20;;
36573;SDS011;22578;42.668;23.232;2024-01-06T16:35:41;4.07;;;3.35;;
36573;SDS011;22578;42.668;23.232;2024-01-06T16:39:02;4.78;;;3.42;;
36573;SDS011;22578;42.668;23.232;2024-01-06T16:42:23;2.20;;;2.00;;
36573;SDS011;22578;42.668;23.232;2024-01-06T16:45:44;3.45;;;3.15;;
36573;SDS011;22578;42.668;23.232;2024-01-06T16:49:04;5.82;;;2.35;;
36573;SDS011;22578;42.668;23.232;2024-01-06T16:52:25;60.83;;;24.63;;
36573;SDS011;22578;42.668;23.232;2024-01-06T16:55:46;45.28;;;22.38;;
36573;SDS011;22578;42.668;23.232;2024-01-06T16:59:06;22.38;;;10.60;;
36573;SDS011;22578;42.668;23.232;2024-01-06T17:02:27;14.75;;;7.97;;
36573;SDS011;22578;42.668;23.232;2024-01-06T17:05:47;13.02;;;7.25;;
36573;SDS011;22578;42.668;23.232;2024-01-06T17:09:08;5.45;;;3.83;;
36573;SDS011;22578;42.668;23.232;2024-01-06T17:12:28;7.40;;;4.10;;
36573;SDS011;22578;42.668;23.232;2024-01-06T17:15:49;3.15;;;2.63;;
36573;SDS011;22578;42.668;23.232;2024-01-06T17:19:09;20.17;;;12.15;;
36573;SDS011;22578;42.668;23.232;2024-01-06T17:22:30;6.13;;;3.83;;
36573;SDS011;22578;42.668;23.232;2024-01-06T17:25:51;3.38;;;2.70;;
36573;SDS011;22578;42.668;23.232;2024-01-06T17:29:11;4.38;;;2.35;;
36573;SDS011;22578;42.668;23.232;2024-01-06T17:32:32;2.85;;;2.15;;
36573;SDS011;22578;42.668;23.232;2024-01-06T17:35:55;2.15;;;1.90;;
36573;SDS011;22578;42.668;23.232;2024-01-06T17:39:16;7.00;;;2.65;;
36573;SDS011;22578;42.668;23.232;2024-01-06T17:42:36;2.42;;;2.22;;
36573;SDS011;22578;42.668;23.232;2024-01-06T17:45:57;4.63;;;2.50;;
36573;SDS011;22578;42.668;23.232;2024-01-06T17:49:17;2.47;;;1.88;;
36573;SDS011;22578;42.668;23.232;2024-01-06T17:52:38;3.42;;;2.22;;
36573;SDS011;22578;42.668;23.232;2024-01-06T17:55:59;4.28;;;2.40;;
36573;SDS011;22578;42.668;23.232;2024-01-06T17:59:19;13.80;;;3.50;;
36573;SDS011;22578;42.668;23.232;2024-01-06T18:02:40;3.80;;;2.63;;
36573;SDS011;22578;42.668;23.232;2024-01-06T18:06:03;9.23;;;6.25;;
36573;SDS011;22578;42.668;23.232;2024-01-06T18:09:24;2.80;;;2.40;;
36573;SDS011;22578;42.668;23.232;2024-01-06T18:12:46;12.50;;;5.72;;
36573;SDS011;22578;42.668;23.232;2024-01-06T18:16:06;6.60;;;4.65;;
36573;SDS011;22578;42.668;23.232;2024-01-06T18:19:28;5.28;;;3.33;;
36573;SDS011;22578;42.668;23.232;2024-01-06T18:22:49;10.38;;;5.63;;
36573;SDS011;22578;42.668;23.232;2024-01-06T18:26:09;13.48;;;5.95;;
36573;SDS011;22578;42.668;23.232;2024-01-06T18:29:30;18.92;;;8.10;;
36573;SDS011;22578;42.668;23.232;2024-01-06T18:32:53;10.25;;;4.25;;
36573;SDS011;22578;42.668;23.232;2024-01-06T18:36:14;7.18;;;5.82;;
36573;SDS011;22578;42.668;23.232;2024-01-06T18:39:35;7.82;;;4.47;;
36573;SDS011;22578;42.668;23.232;2024-01-06T18:42:55;8.15;;;3.83;;
36573;SDS011;22578;42.668;23.232;2024-01-06T18:46:16;10.55;;;4.80;;
36573;SDS011;22578;42.668;23.232;2024-01-06T18:49:36;9.27;;;4.00;;
36573;SDS011;22578;42.668;23.232;2024-01-06T18:52:57;5.55;;;2.70;;
36573;SDS011;22578;42.668;23.232;2024-01-06T18:56:17;5.28;;;4.30;;
36573;SDS011;22578;42.668;23.232;2024-01-06T18:59:38;3.83;;;3.38;;
36573;SDS011;22578;42.668;23.232;2024-01-06T19:02:59;7.18;;;4.20;;
36573;SDS011;22578;42.668;23.232;2024-01-06T19:06:20;6.93;;;4.15;;
36573;SDS011;22578;42.668;23.232;2024-01-06T19:09:41;7.25;;;6.00;;
36573;SDS011;22578;42.668;23.232;2024-01-06T19:13:01;4.75;;;3.70;;
36573;SDS011;22578;42.668;23.232;2024-01-06T19:16:22;3.40;;;2.88;;
36573;SDS011;22578;42.668;23.232;2024-01-06T19:19:42;11.02;;;5.75;;
36573;SDS011;22578;42.668;23.232;2024-01-06T19:23:03;2.33;;;2.20;;
36573;SDS011;22578;42.668;23.232;2024-01-06T19:26:24;4.97;;;2.97;;
36573;SDS011;22578;42.668;23.232;2024-01-06T19:29:45;3.30;;;2.58;;
36573;SDS011;22578;42.668;23.232;2024-01-06T19:33:06;3.28;;;2.75;;
36573;SDS011;22578;42.668;23.232;2024-01-06T19:36:28;2.80;;;2.60;;
36573;SDS011;22578;42.668;23.232;2024-01-06T19:39:49;4.20;;;3.22;;
36573;SDS011;22578;42.668;23.232;2024-01-06T19:43:09;3.78;;;3.03;;
36573;SDS011;22578;42.668;23.232;2024-01-06T19:46:31;7.38;;;4.82;;
36573;SDS011;22578;42.668;23.232;2024-01-06T19:49:52;15.75;;;8.45;;
36573;SDS011;22578;42.668;23.232;2024-01-06T19:53:13;6.38;;;4.75;;
36573;SDS011;22578;42.668;23.232;2024-01-06T19:56:33;3.35;;;3.08;;
36573;SDS011;22578;42.668;23.232;2024-01-06T19:59:55;2.83;;;2.42;;